Time;durP1;ratioP1;P1;durP2;ratioP2;P2;SDS_P1;SDS_P2;PMS_P1;PMS_P2;Temp;Humidity;BMP_temperature;BMP_pressure;BME280_temperature;BME280_humidity;BME280_pressure;Samples;Min_cycle;Max_cycle;Signal;HPM_P1;HPM_P2
2023/07/01 00:00:41;;;;;;;4.93;1.57;;;;;;;;;;5046549;28;20232;-60
2023/07/01 00:03:09;;;;;;;2.07;1.60;;;;;;;;;;5040936;28;20211;-60
2023/07/01 00:05:37;;;;;;;2.60;1.90;;;;;;;;;;5041002;28;20220;-60
2023/07/01 00:08:04;;;;;;;3.17;1.93;;;;;;;;;;5040939;28;20318;-61
2023/07/01 00:10:34;;;;;;;4.73;3.40;;;;;;;;;;5041047;28;20237;-60
2023/07/01 00:13:01;;;;;;;8.00;5.17;;;;;;;;;;5041018;28;20219;-63
2023/07/01 00:15:29;;;;;;;13.03;8.00;;;;;;;;;;5040616;28;20381;-62
2023/07/01 00:17:57;;;;;;;9.10;6.00;;;;;;;;;;5040980;28;20213;-62
2023/07/01 00:20:26;;;;;;;5.93;4.70;;;;;;;;;;5040514;28;20230;-62
2023/07/01 00:22:54;;;;;;;6.53;3.00;;;;;;;;;;5040786;28;20743;-62
2023/07/01 00:25:23;;;;;;;3.63;2.20;;;;;;;;;;5040700;28;20205;-61
2023/07/01 00:27:52;;;;;;;3.90;2.60;;;;;;;;;;5040456;28;20633;-61
2023/07/01 00:30:20;;;;;;;2.17;1.73;;;;;;;;;;5040391;28;20681;-60
2023/07/01 00:32:47;;;;;;;4.73;1.80;;;;;;;;;;5052397;28;20244;-60
2023/07/01 00:35:15;;;;;;;4.47;1.70;;;;;;;;;;5041829;28;20205;-60
2023/07/01 00:37:43;;;;;;;4.30;2.23;;;;;;;;;;5040422;28;20613;-60
2023/07/01 00:40:11;;;;;;;5.27;2.67;;;;;;;;;;5045750;28;20316;-60
2023/07/01 00:42:39;;;;;;;2.90;2.00;;;;;;;;;;5047579;28;20292;-60
2023/07/01 00:45:09;;;;;;;4.57;2.17;;;;;;;;;;5047027;28;20212;-60
2023/07/01 00:47:38;;;;;;;2.70;1.80;;;;;;;;;;5060251;28;20265;-60
2023/07/01 00:50:07;;;;;;;4.17;1.77;;;;;;;;;;5060263;28;20230;-60
2023/07/01 00:52:35;;;;;;;4.70;2.90;;;;;;;;;;5060157;28;20210;-60
2023/07/01 00:55:02;;;;;;;7.00;3.23;;;;;;;;;;5060227;28;20277;-61
2023/07/01 00:57:30;;;;;;;4.60;3.33;;;;;;;;;;5059221;28;20203;-60
2023/07/01 00:59:58;;;;;;;7.00;3.80;;;;;;;;;;5051103;28;20232;-60
2023/07/01 01:02:31;;;;;;;3.20;2.33;;;;;;;;;;5040167;28;20652;-60
2023/07/01 01:05:10;;;;;;;2.77;2.10;;;;;;;;;;5040143;28;20208;-60
2023/07/01 01:07:42;;;;;;;3.20;1.60;;;;;;;;;;5039758;28;20707;-60
2023/07/01 01:10:13;;;;;;;4.23;2.00;;;;;;;;;;5039956;28;20232;-60
2023/07/01 01:12:41;;;;;;;2.43;1.60;;;;;;;;;;5039942;28;20573;-60
2023/07/01 01:15:10;;;;;;;1.70;1.50;;;;;;;;;;5039654;28;20299;-60
2023/07/01 01:17:40;;;;;;;4.30;2.07;;;;;;;;;;5039603;28;20247;-60
2023/07/01 01:20:13;;;;;;;1.90;1.37;;;;;;;;;;5039437;28;20322;-60
2023/07/01 01:22:45;;;;;;;1.60;1.40;;;;;;;;;;5039466;28;20282;-60
2023/07/01 01:25:27;;;;;;;2.13;1.57;;;;;;;;;;5039735;28;20219;-60
2023/07/01 01:27:57;;;;;;;2.30;1.70;;;;;;;;;;5039707;28;20227;-60
2023/07/01 01:30:29;;;;;;;3.07;1.30;;;;;;;;;;5039067;28;20235;-60
2023/07/01 01:32:57;;;;;;;3.07;1.60;;;;;;;;;;5052751;28;20265;-60
2023/07/01 01:35:25;;;;;;;2.87;1.57;;;;;;;;;;5047694;28;20202;-60
2023/07/01 01:37:54;;;;;;;3.60;1.50;;;;;;;;;;5058350;28;20221;-60
2023/07/01 01:40:24;;;;;;;1.47;1.30;;;;;;;;;;5059247;28;20223;-60
2023/07/01 01:42:54;;;;;;;1.30;1.20;;;;;;;;;;5041783;28;20570;-60
2023/07/01 01:45:23;;;;;;;3.37;1.53;;;;;;;;;;5038986;28;20299;-60
2023/07/01 01:47:52;;;;;;;2.73;1.43;;;;;;;;;;5039223;28;20259;-60
2023/07/01 01:50:22;;;;;;;2.23;1.33;;;;;;;;;;5039210;28;20227;-60
2023/07/01 01:52:50;;;;;;;2.90;1.40;;;;;;;;;;5039146;28;20208;-60
2023/07/01 01:55:20;;;;;;;4.37;1.70;;;;;;;;;;5039240;28;20211;-60
2023/07/01 01:57:49;;;;;;;5.13;1.67;;;;;;;;;;5039200;28;20203;-60
2023/07/01 02:00:17;;;;;;;3.27;1.67;;;;;;;;;;5051295;28;20231;-60
2023/07/01 02:02:46;;;;;;;3.60;1.73;;;;;;;;;;5038815;28;20207;-60
2023/07/01 02:05:14;;;;;;;4.90;1.37;;;;;;;;;;5038896;28;20211;-60
2023/07/01 02:07:42;;;;;;;3.90;1.73;;;;;;;;;;5038620;28;20746;-60
2023/07/01 02:10:11;;;;;;;3.00;1.20;;;;;;;;;;5038775;28;20231;-60
2023/07/01 02:12:39;;;;;;;1.90;1.77;;;;;;;;;;5038824;28;20214;-60
2023/07/01 02:15:08;;;;;;;3.70;1.40;;;;;;;;;;5038333;28;20219;-60
2023/07/01 02:17:35;;;;;;;2.63;1.40;;;;;;;;;;5038487;28;20211;-60
2023/07/01 02:20:06;;;;;;;4.33;1.70;;;;;;;;;;5038319;28;20228;-60
2023/07/01 02:22:34;;;;;;;4.10;2.13;;;;;;;;;;5038314;28;20243;-60
2023/07/01 02:25:02;;;;;;;2.57;1.60;;;;;;;;;;5038260;28;20203;-60
2023/07/01 02:27:31;;;;;;;5.53;1.53;;;;;;;;;;5038517;28;20228;-60
2023/07/01 02:29:58;;;;;;;1.20;1.10;;;;;;;;;;5037970;28;20224;-60
2023/07/01 02:32:26;;;;;;;3.97;1.87;;;;;;;;;;5047378;28;20260;-60
2023/07/01 02:34:54;;;;;;;3.23;1.50;;;;;;;;;;5042484;28;20212;-60
2023/07/01 02:37:23;;;;;;;2.60;1.80;;;;;;;;;;5038318;28;20207;-60
2023/07/01 02:39:51;;;;;;;2.73;1.60;;;;;;;;;;5040901;28;20251;-60
2023/07/01 02:42:20;;;;;;;3.13;1.57;;;;;;;;;;5047889;28;20734;-60
2023/07/01 02:44:48;;;;;;;2.87;1.43;;;;;;;;;;5037820;28;20568;-60
2023/07/01 02:47:16;;;;;;;1.83;1.10;;;;;;;;;;5038233;28;20211;-60
2023/07/01 02:49:44;;;;;;;2.93;1.60;;;;;;;;;;5037924;28;20530;-60
2023/07/01 02:52:14;;;;;;;1.73;1.63;;;;;;;;;;5038140;28;20222;-60
2023/07/01 02:54:43;;;;;;;2.97;1.77;;;;;;;;;;5037831;28;20218;-60
2023/07/01 02:57:11;;;;;;;2.87;1.80;;;;;;;;;;5038061;28;20230;-61
2023/07/01 02:59:38;;;;;;;3.17;1.77;;;;;;;;;;5039180;28;20212;-60
2023/07/01 03:02:07;;;;;;;5.20;2.07;;;;;;;;;;5037723;28;20294;-60
2023/07/01 03:04:35;;;;;;;4.20;2.07;;;;;;;;;;5038014;28;20218;-61
2023/07/01 03:07:04;;;;;;;3.23;1.70;;;;;;;;;;5037476;28;20211;-60
2023/07/01 03:09:31;;;;;;;2.17;1.67;;;;;;;;;;5037549;28;20227;-60
2023/07/01 03:12:00;;;;;;;4.43;1.70;;;;;;;;;;5037868;28;20211;-60
2023/07/01 03:14:28;;;;;;;2.20;1.37;;;;;;;;;;5037709;28;20215;-60
2023/07/01 03:16:56;;;;;;;3.80;1.80;;;;;;;;;;5037794;28;20207;-61
2023/07/01 03:19:24;;;;;;;2.60;1.70;;;;;;;;;;5037319;28;20203;-60
2023/07/01 03:21:51;;;;;;;3.80;2.27;;;;;;;;;;5037677;28;20211;-60
2023/07/01 03:24:19;;;;;;;6.03;3.03;;;;;;;;;;5037854;28;20215;-60
2023/07/01 03:26:48;;;;;;;5.23;2.73;;;;;;;;;;5037764;28;20214;-60
2023/07/01 03:29:17;;;;;;;4.87;2.77;;;;;;;;;;5037242;28;20254;-60
2023/07/01 03:31:45;;;;;;;7.73;3.10;;;;;;;;;;5040665;28;20218;-60
2023/07/01 03:34:13;;;;;;;4.30;3.07;;;;;;;;;;5047510;28;20210;-60
2023/07/01 03:36:41;;;;;;;3.57;3.07;;;;;;;;;;5042665;28;20198;-60
2023/07/01 03:39:09;;;;;;;6.83;3.20;;;;;;;;;;5056291;28;20662;-60
2023/07/01 03:41:38;;;;;;;6.23;3.30;;;;;;;;;;5050110;28;20306;-60
2023/07/01 03:44:07;;;;;;;4.93;3.50;;;;;;;;;;5037328;28;20258;-60
2023/07/01 03:46:36;;;;;;;6.60;4.10;;;;;;;;;;5041860;28;20229;-60
2023/07/01 03:49:04;;;;;;;10.17;4.77;;;;;;;;;;5066808;28;20253;-60
2023/07/01 03:51:32;;;;;;;9.50;4.70;;;;;;;;;;5066228;28;20254;-60
2023/07/01 03:54:00;;;;;;;11.20;5.70;;;;;;;;;;5061507;28;20268;-60
2023/07/01 03:56:28;;;;;;;11.57;5.17;;;;;;;;;;5064142;28;20199;-60
2023/07/01 03:58:56;;;;;;;10.07;5.20;;;;;;;;;;5060982;28;20645;-60
2023/07/01 04:01:24;;;;;;;10.10;5.70;;;;;;;;;;5067849;28;20218;-60
2023/07/01 04:03:55;;;;;;;9.40;5.50;;;;;;;;;;5064488;28;20204;-60
2023/07/01 04:06:24;;;;;;;8.23;4.97;;;;;;;;;;5063895;28;20226;-60
2023/07/01 04:08:54;;;;;;;8.13;5.03;;;;;;;;;;5061924;28;20697;-60
2023/07/01 04:11:23;;;;;;;6.80;4.60;;;;;;;;;;5065349;28;20233;-60
2023/07/01 04:13:51;;;;;;;11.00;4.87;;;;;;;;;;5056689;28;20218;-59
2023/07/01 04:16:19;;;;;;;11.97;5.13;;;;;;;;;;5065592;28;20237;-60
2023/07/01 04:18:47;;;;;;;8.73;4.83;;;;;;;;;;5064909;28;20202;-59
2023/07/01 04:21:16;;;;;;;8.27;4.33;;;;;;;;;;5064098;28;20226;-59
2023/07/01 04:23:44;;;;;;;8.03;4.07;;;;;;;;;;5039124;28;20203;-60
2023/07/01 04:26:12;;;;;;;10.40;4.57;;;;;;;;;;5067017;28;20557;-60
2023/07/01 04:28:40;;;;;;;6.27;4.20;;;;;;;;;;5062713;28;20215;-60
2023/07/01 04:31:07;;;;;;;8.93;3.90;;;;;;;;;;5066660;28;20229;-59
2023/07/01 04:33:35;;;;;;;9.47;4.37;;;;;;;;;;5053864;28;20326;-60
2023/07/01 04:36:03;;;;;;;8.07;3.63;;;;;;;;;;5040638;28;20203;-59
2023/07/01 04:38:32;;;;;;;7.93;4.13;;;;;;;;;;5040679;28;20405;-59
2023/07/01 04:41:01;;;;;;;6.93;4.17;;;;;;;;;;5052700;28;20226;-60
2023/07/01 04:43:29;;;;;;;10.23;4.67;;;;;;;;;;5041427;28;20227;-60
2023/07/01 04:45:57;;;;;;;7.83;4.97;;;;;;;;;;5040327;28;20267;-60
2023/07/01 04:48:25;;;;;;;6.53;4.53;;;;;;;;;;5040457;28;20207;-60
2023/07/01 04:50:52;;;;;;;12.90;5.33;;;;;;;;;;5040297;28;20227;-59
2023/07/01 04:53:20;;;;;;;8.33;5.10;;;;;;;;;;5040165;28;20626;-60
2023/07/01 04:55:50;;;;;;;10.03;5.23;;;;;;;;;;5040288;28;20214;-60
2023/07/01 04:58:18;;;;;;;10.27;5.87;;;;;;;;;;5058130;28;20226;-60
2023/07/01 05:00:46;;;;;;;10.63;5.30;;;;;;;;;;5054376;28;20215;-60
2023/07/01 05:03:14;;;;;;;10.63;5.40;;;;;;;;;;5050969;28;20202;-59
2023/07/01 05:05:42;;;;;;;12.83;5.93;;;;;;;;;;5058115;28;20203;-60
2023/07/01 05:08:10;;;;;;;11.90;6.80;;;;;;;;;;5039493;28;20215;-59
2023/07/01 05:10:38;;;;;;;10.87;6.60;;;;;;;;;;5039455;28;20298;-60
2023/07/01 05:13:08;;;;;;;19.80;8.97;;;;;;;;;;5039817;28;20218;-59
2023/07/01 05:15:37;;;;;;;17.93;9.60;;;;;;;;;;5039406;28;20203;-60
2023/07/01 05:18:05;;;;;;;19.07;9.33;;;;;;;;;;5039871;28;20731;-59
2023/07/01 05:20:33;;;;;;;20.90;9.93;;;;;;;;;;5039713;28;20262;-59
2023/07/01 05:23:00;;;;;;;19.53;10.37;;;;;;;;;;5039637;28;20207;-60
2023/07/01 05:25:28;;;;;;;13.60;9.23;;;;;;;;;;5039492;28;20765;-60
2023/07/01 05:27:56;;;;;;;13.43;7.90;;;;;;;;;;5039727;28;20211;-60
2023/07/01 05:30:27;;;;;;;15.20;7.47;;;;;;;;;;5039031;28;20227;-60
2023/07/01 05:32:55;;;;;;;11.70;7.97;;;;;;;;;;5052175;28;20582;-59
2023/07/01 05:35:22;;;;;;;14.83;7.70;;;;;;;;;;5039831;28;20298;-60
2023/07/01 05:37:50;;;;;;;11.80;7.67;;;;;;;;;;5041373;28;20674;-60
2023/07/01 05:40:18;;;;;;;12.57;7.10;;;;;;;;;;5057797;28;20218;-59
2023/07/01 05:42:46;;;;;;;13.97;8.03;;;;;;;;;;5042141;28;20235;-60
2023/07/01 05:45:14;;;;;;;16.33;9.30;;;;;;;;;;5039229;28;20204;-59
2023/07/01 05:47:43;;;;;;;14.57;9.10;;;;;;;;;;5039066;28;20207;-60
2023/07/01 05:50:11;;;;;;;16.73;9.70;;;;;;;;;;5038927;28;20231;-59
2023/07/01 05:52:38;;;;;;;15.90;9.27;;;;;;;;;;5039126;28;20709;-59
2023/07/01 05:55:07;;;;;;;16.67;8.10;;;;;;;;;;5039193;28;20204;-60
2023/07/01 05:57:34;;;;;;;15.57;8.80;;;;;;;;;;5039117;28;20211;-60
2023/07/01 06:00:04;;;;;;;17.03;8.97;;;;;;;;;;5050266;28;20226;-59
2023/07/01 06:02:32;;;;;;;20.33;10.57;;;;;;;;;;5039130;28;20214;-60
2023/07/01 06:05:01;;;;;;;21.63;9.33;;;;;;;;;;5038414;28;20270;-60
2023/07/01 06:07:29;;;;;;;22.40;10.27;;;;;;;;;;5038604;28;20203;-60
2023/07/01 06:09:57;;;;;;;16.63;9.03;;;;;;;;;;5038324;28;20235;-60
2023/07/01 06:12:25;;;;;;;14.43;8.23;;;;;;;;;;5038830;28;20221;-60
2023/07/01 06:14:52;;;;;;;13.87;7.63;;;;;;;;;;5038635;28;20207;-60
2023/07/01 06:17:20;;;;;;;14.13;8.00;;;;;;;;;;5038655;28;20612;-60
2023/07/01 06:19:48;;;;;;;12.10;7.80;;;;;;;;;;5038609;28;20238;-60
2023/07/01 06:22:17;;;;;;;15.33;7.47;;;;;;;;;;5038655;28;20725;-59
2023/07/01 06:24:45;;;;;;;15.57;7.03;;;;;;;;;;5038540;28;20207;-58
2023/07/01 06:27:12;;;;;;;14.90;7.23;;;;;;;;;;5038661;28;20212;-58
2023/07/01 06:29:40;;;;;;;12.77;7.47;;;;;;;;;;5038175;28;20321;-58
2023/07/01 06:32:08;;;;;;;13.37;6.57;;;;;;;;;;5050903;28;20239;-58
2023/07/01 06:34:36;;;;;;;10.73;5.83;;;;;;;;;;5046951;28;20208;-58
2023/07/01 06:37:04;;;;;;;8.90;5.10;;;;;;;;;;5040973;28;20202;-60
2023/07/01 06:39:33;;;;;;;12.17;4.80;;;;;;;;;;5049289;28;20211;-60
2023/07/01 06:42:05;;;;;;;7.50;4.27;;;;;;;;;;5051926;28;20210;-60
2023/07/01 06:44:33;;;;;;;8.00;4.20;;;;;;;;;;5042681;28;20207;-60
2023/07/01 06:47:00;;;;;;;5.70;3.90;;;;;;;;;;5044396;28;20214;-60
2023/07/01 06:49:28;;;;;;;6.07;3.63;;;;;;;;;;5057734;28;20542;-59
2023/07/01 06:51:56;;;;;;;7.67;3.93;;;;;;;;;;5056163;28;20294;-60
2023/07/01 06:54:24;;;;;;;5.67;3.77;;;;;;;;;;5055460;28;20219;-59
2023/07/01 06:56:53;;;;;;;6.63;3.50;;;;;;;;;;5055893;28;20207;-59
2023/07/01 06:59:20;;;;;;;5.07;3.93;;;;;;;;;;5054553;28;20211;-59
2023/07/01 07:01:48;;;;;;;7.37;4.20;;;;;;;;;;5043507;28;20247;-61
2023/07/01 07:04:16;;;;;;;5.47;3.80;;;;;;;;;;5047178;28;20203;-61
2023/07/01 07:06:44;;;;;;;7.17;3.97;;;;;;;;;;5048402;28;20639;-61
2023/07/01 07:09:11;;;;;;;6.83;4.37;;;;;;;;;;5048433;28;20207;-61
2023/07/01 07:11:40;;;;;;;7.47;3.53;;;;;;;;;;5054288;28;20233;-61
2023/07/01 07:14:09;;;;;;;6.10;3.37;;;;;;;;;;5052879;28;20207;-61
2023/07/01 07:16:37;;;;;;;5.50;3.60;;;;;;;;;;5054882;28;20199;-61
2023/07/01 07:19:04;;;;;;;3.97;2.57;;;;;;;;;;5045359;28;20195;-60
2023/07/01 07:21:33;;;;;;;3.97;2.20;;;;;;;;;;5040380;28;20223;-60
2023/07/01 07:24:01;;;;;;;5.57;2.40;;;;;;;;;;5035632;28;20757;-60
2023/07/01 07:26:29;;;;;;;2.50;2.00;;;;;;;;;;5036466;28;20611;-60
2023/07/01 07:28:57;;;;;;;3.03;1.80;;;;;;;;;;5037353;28;20545;-60
2023/07/01 07:31:26;;;;;;;3.07;2.00;;;;;;;;;;5042115;28;20315;-60
2023/07/01 07:33:54;;;;;;;3.30;2.30;;;;;;;;;;5045095;28;20239;-60
2023/07/01 07:36:22;;;;;;;2.00;1.67;;;;;;;;;;5037279;28;20208;-60
2023/07/01 07:38:49;;;;;;;2.93;2.33;;;;;;;;;;5037457;28;20205;-60
2023/07/01 07:41:17;;;;;;;5.43;2.43;;;;;;;;;;5046330;28;20229;-60
2023/07/01 07:43:45;;;;;;;3.67;1.87;;;;;;;;;;5037613;28;20209;-60
2023/07/01 07:46:13;;;;;;;2.40;2.00;;;;;;;;;;5037450;28;20220;-60
2023/07/01 07:48:42;;;;;;;3.17;1.70;;;;;;;;;;5037563;28;20301;-59
2023/07/01 07:51:09;;;;;;;3.67;1.43;;;;;;;;;;5037228;28;20594;-60
2023/07/01 07:53:38;;;;;;;1.30;1.20;;;;;;;;;;5037551;28;20291;-60
2023/07/01 07:56:06;;;;;;;1.57;1.47;;;;;;;;;;5037811;28;20614;-60
2023/07/01 07:58:34;;;;;;;2.50;1.40;;;;;;;;;;5037493;28;20219;-60
2023/07/01 08:01:01;;;;;;;1.40;1.20;;;;;;;;;;5048306;28;20234;-60
2023/07/01 08:03:29;;;;;;;3.93;1.10;;;;;;;;;;5037143;28;20234;-60
2023/07/01 08:05:58;;;;;;;2.60;1.50;;;;;;;;;;5039074;28;20589;-60
2023/07/01 08:08:26;;;;;;;1.50;1.40;;;;;;;;;;5041254;28;20220;-60
2023/07/01 08:10:54;;;;;;;2.83;1.20;;;;;;;;;;5041077;28;20233;-60
2023/07/01 08:13:22;;;;;;;1.43;1.30;;;;;;;;;;5041140;28;20260;-60
2023/07/01 08:15:49;;;;;;;2.43;1.17;;;;;;;;;;5041034;28;20207;-60
2023/07/01 08:18:17;;;;;;;1.83;1.40;;;;;;;;;;5041004;28;20686;-59
2023/07/01 08:20:45;;;;;;;1.77;1.20;;;;;;;;;;5041276;28;20237;-60
2023/07/01 08:23:16;;;;;;;1.70;1.20;;;;;;;;;;5040826;28;20211;-60
2023/07/01 08:25:44;;;;;;;1.40;1.30;;;;;;;;;;5040941;28;20216;-60
2023/07/01 08:28:11;;;;;;;0.90;0.90;;;;;;;;;;5040834;28;20278;-60
2023/07/01 08:30:39;;;;;;;1.10;1.07;;;;;;;;;;5040239;28;20238;-60
2023/07/01 08:33:07;;;;;;;1.40;1.27;;;;;;;;;;5053833;28;20265;-59
2023/07/01 08:35:35;;;;;;;1.67;1.17;;;;;;;;;;5040406;28;20574;-59
2023/07/01 08:38:03;;;;;;;3.07;1.13;;;;;;;;;;5040549;28;20213;-59
2023/07/01 08:40:32;;;;;;;1.33;1.13;;;;;;;;;;5048442;28;20232;-59
2023/07/01 08:43:02;;;;;;;1.07;0.83;;;;;;;;;;5040818;28;20224;-59
2023/07/01 08:45:30;;;;;;;1.17;0.87;;;;;;;;;;5040016;28;20622;-61
2023/07/01 08:47:59;;;;;;;3.10;1.00;;;;;;;;;;5040191;28;20241;-61
2023/07/01 08:50:29;;;;;;;2.40;0.70;;;;;;;;;;5040347;28;20245;-61
2023/07/01 08:53:01;;;;;;;0.77;0.77;;;;;;;;;;5040285;28;20289;-61
2023/07/01 08:55:29;;;;;;;0.70;0.67;;;;;;;;;;5040300;28;20207;-61
2023/07/01 08:57:58;;;;;;;0.67;0.67;;;;;;;;;;5040269;28;20294;-61
2023/07/01 09:00:27;;;;;;;2.00;0.97;;;;;;;;;;5051828;28;20243;-61
2023/07/01 09:02:54;;;;;;;1.10;1.00;;;;;;;;;;5040200;28;20217;-61
2023/07/01 09:05:22;;;;;;;1.30;1.10;;;;;;;;;;5039864;28;20218;-61
2023/07/01 09:07:50;;;;;;;2.00;0.93;;;;;;;;;;5040121;28;20211;-61
2023/07/01 09:10:18;;;;;;;1.60;1.03;;;;;;;;;;5040268;28;20226;-61
2023/07/01 09:12:45;;;;;;;1.70;1.30;;;;;;;;;;5039826;28;20599;-61
2023/07/01 09:15:14;;;;;;;2.57;1.00;;;;;;;;;;5039503;28;20222;-61
2023/07/01 09:17:42;;;;;;;1.33;0.80;;;;;;;;;;5039059;28;20214;-61
2023/07/01 09:20:11;;;;;;;2.60;0.70;;;;;;;;;;5039842;28;20721;-60
2023/07/01 09:22:40;;;;;;;0.80;0.80;;;;;;;;;;5039871;28;20212;-60
2023/07/01 09:25:08;;;;;;;1.37;0.70;;;;;;;;;;5046623;28;20210;-61
2023/07/01 09:27:42;;;;;;;0.83;0.50;;;;;;;;;;5059459;28;20235;-61
2023/07/01 09:30:28;;;;;;;1.90;0.93;;;;;;;;;;5059498;28;20229;-60
2023/07/01 09:33:13;;;;;;;1.77;0.80;;;;;;;;;;5055289;28;20594;-61
2023/07/01 09:35:43;;;;;;;2.83;1.03;;;;;;;;;;5039679;28;20225;-61
2023/07/01 09:38:10;;;;;;;2.63;0.93;;;;;;;;;;5039683;28;20221;-61
2023/07/01 09:40:38;;;;;;;1.60;0.70;;;;;;;;;;5048120;28;20230;-61
2023/07/01 09:43:06;;;;;;;1.77;1.27;;;;;;;;;;5039420;28;20238;-60
2023/07/01 09:45:35;;;;;;;4.07;1.03;;;;;;;;;;5039212;28;20212;-59
2023/07/01 09:48:10;;;;;;;1.03;0.67;;;;;;;;;;5039420;28;20225;-61
2023/07/01 09:50:38;;;;;;;1.03;1.00;;;;;;;;;;5038995;28;20300;-63
2023/07/01 09:53:21;;;;;;;1.40;1.10;;;;;;;;;;5039081;28;20232;-62
2023/07/01 09:55:49;;;;;;;1.87;0.97;;;;;;;;;;5039249;28;20217;-61
2023/07/01 09:58:17;;;;;;;2.63;1.43;;;;;;;;;;5042099;28;20574;-65
2023/07/01 10:00:46;;;;;;;1.20;0.90;;;;;;;;;;5051713;28;20222;-65
2023/07/01 10:03:15;;;;;;;3.80;1.23;;;;;;;;;;5039676;28;20200;-65
2023/07/01 10:05:44;;;;;;;0.83;0.83;;;;;;;;;;5040517;28;20209;-65
2023/07/01 10:08:12;;;;;;;1.93;1.30;;;;;;;;;;5038752;28;20223;-65
2023/07/01 10:10:39;;;;;;;1.60;1.23;;;;;;;;;;5038602;28;20234;-62
2023/07/01 10:13:07;;;;;;;1.43;1.17;;;;;;;;;;5038414;28;20239;-63
2023/07/01 10:15:38;;;;;;;2.20;1.30;;;;;;;;;;5054251;28;20210;-63
2023/07/01 10:18:22;;;;;;;1.10;1.07;;;;;;;;;;5052274;28;20233;-61
2023/07/01 10:20:50;;;;;;;1.67;1.30;;;;;;;;;;5049595;28;20686;-62
2023/07/01 10:23:18;;;;;;;2.43;1.23;;;;;;;;;;5049304;28;20227;-63
2023/07/01 10:25:46;;;;;;;1.80;1.17;;;;;;;;;;5051593;28;20200;-62
2023/07/01 10:28:15;;;;;;;2.53;1.50;;;;;;;;;;5048946;28;20217;-62
2023/07/01 10:31:01;;;;;;;1.93;1.10;;;;;;;;;;5038295;28;20238;-60
2023/07/01 10:33:47;;;;;;;1.30;1.20;;;;;;;;;;5038190;28;20241;-62
2023/07/01 10:36:17;;;;;;;3.03;1.40;;;;;;;;;;5038298;28;20213;-60
2023/07/01 10:38:45;;;;;;;1.97;1.20;;;;;;;;;;5038208;28;20238;-60
2023/07/01 10:41:13;;;;;;;1.97;1.10;;;;;;;;;;5048857;28;20612;-60
2023/07/01 10:43:41;;;;;;;3.07;1.50;;;;;;;;;;5038160;28;20297;-60
2023/07/01 10:46:10;;;;;;;1.77;1.30;;;;;;;;;;5037870;28;20564;-62
2023/07/01 10:48:39;;;;;;;4.17;1.53;;;;;;;;;;5038233;28;20280;-60
2023/07/01 10:51:07;;;;;;;1.20;1.00;;;;;;;;;;5038000;28;20236;-60
2023/07/01 10:53:54;;;;;;;1.37;1.27;;;;;;;;;;5038179;28;20718;-61
2023/07/01 10:56:23;;;;;;;2.23;1.07;;;;;;;;;;5038180;28;20293;-61
2023/07/01 10:59:05;;;;;;;1.63;1.40;;;;;;;;;;5040788;28;20607;-59
2023/07/01 11:01:44;;;;;;;1.70;1.60;;;;;;;;;;5045172;28;20234;-59
2023/07/01 11:04:12;;;;;;;1.93;1.40;;;;;;;;;;5044918;28;20210;-59
2023/07/01 11:06:47;;;;;;;3.63;1.13;;;;;;;;;;5052215;28;20251;-59
2023/07/01 11:09:16;;;;;;;4.13;1.40;;;;;;;;;;5049960;28;20202;-59
2023/07/01 11:11:45;;;;;;;1.57;1.47;;;;;;;;;;5055700;28;20233;-62
2023/07/01 11:14:13;;;;;;;1.90;1.27;;;;;;;;;;5037857;28;20217;-62
2023/07/01 11:16:41;;;;;;;2.27;1.20;;;;;;;;;;5038071;28;20203;-62
2023/07/01 11:19:10;;;;;;;3.67;1.27;;;;;;;;;;5037920;28;20393;-62
2023/07/01 11:21:38;;;;;;;3.43;0.97;;;;;;;;;;5037673;28;20233;-62
2023/07/01 11:24:06;;;;;;;1.07;0.97;;;;;;;;;;5037644;28;20206;-62
2023/07/01 11:26:35;;;;;;;2.17;1.17;;;;;;;;;;5037581;28;20235;-62
2023/07/01 11:29:09;;;;;;;1.10;1.10;;;;;;;;;;5037511;28;20215;-62
2023/07/01 11:31:37;;;;;;;1.70;1.03;;;;;;;;;;5037266;28;20667;-62
2023/07/01 11:34:05;;;;;;;1.10;1.00;;;;;;;;;;5037916;28;20231;-62
2023/07/01 11:36:35;;;;;;;2.10;1.33;;;;;;;;;;5037395;28;20219;-62
2023/07/01 11:39:07;;;;;;;1.23;1.13;;;;;;;;;;5037433;28;20254;-62
2023/07/01 11:41:35;;;;;;;1.10;1.00;;;;;;;;;;5051984;28;20718;-62
2023/07/01 11:44:06;;;;;;;1.47;1.07;;;;;;;;;;5041633;28;20210;-62
2023/07/01 11:46:35;;;;;;;1.67;1.13;;;;;;;;;;5041419;28;20291;-62
2023/07/01 11:49:13;;;;;;;1.73;1.17;;;;;;;;;;5041528;28;20204;-60
2023/07/01 11:51:41;;;;;;;1.87;1.00;;;;;;;;;;5041429;28;20758;-62
2023/07/01 11:54:09;;;;;;;1.17;1.07;;;;;;;;;;5041490;28;20259;-61
2023/07/01 11:56:41;;;;;;;2.43;1.27;;;;;;;;;;5041604;28;20262;-62
2023/07/01 11:59:10;;;;;;;1.53;1.30;;;;;;;;;;5043822;28;20205;-61
2023/07/01 12:01:39;;;;;;;1.00;1.00;;;;;;;;;;5041073;28;20315;-61
2023/07/01 12:04:14;;;;;;;0.93;0.93;;;;;;;;;;5041345;28;20749;-62
2023/07/01 12:06:42;;;;;;;2.10;1.27;;;;;;;;;;5041214;28;20660;-60
2023/07/01 12:09:10;;;;;;;1.27;1.10;;;;;;;;;;5041035;28;20214;-61
2023/07/01 12:11:44;;;;;;;3.10;1.10;;;;;;;;;;5040911;28;20596;-62
2023/07/01 12:14:20;;;;;;;1.27;1.17;;;;;;;;;;5040966;28;20264;-61
2023/07/01 12:16:49;;;;;;;2.27;1.10;;;;;;;;;;5041074;28;20218;-63
2023/07/01 12:19:17;;;;;;;1.20;0.90;;;;;;;;;;5047011;28;20594;-63
2023/07/01 12:21:45;;;;;;;0.90;0.90;;;;;;;;;;5052286;28;20239;-64
2023/07/01 12:24:17;;;;;;;1.53;1.20;;;;;;;;;;5052019;28;20211;-64
2023/07/01 12:26:45;;;;;;;2.87;1.17;;;;;;;;;;5052327;28;20201;-65
2023/07/01 12:29:13;;;;;;;2.13;1.13;;;;;;;;;;5050074;28;20273;-65
2023/07/01 12:31:42;;;;;;;1.57;1.10;;;;;;;;;;5040132;28;20230;-65
2023/07/01 12:34:10;;;;;;;2.40;1.10;;;;;;;;;;5040450;28;20230;-64
2023/07/01 12:36:38;;;;;;;1.43;1.10;;;;;;;;;;5040180;28;20207;-65
2023/07/01 12:39:07;;;;;;;1.20;1.10;;;;;;;;;;5040505;28;20215;-65
2023/07/01 12:41:35;;;;;;;2.70;1.27;;;;;;;;;;5048441;28;20237;-66
2023/07/01 12:44:03;;;;;;;1.50;1.33;;;;;;;;;;5050245;28;20196;-66
2023/07/01 12:46:31;;;;;;;3.03;1.10;;;;;;;;;;5053272;28;20655;-66
2023/07/01 12:49:02;;;;;;;0.83;0.80;;;;;;;;;;5055032;28;20295;-66
2023/07/01 12:51:32;;;;;;;1.30;1.20;;;;;;;;;;5039518;28;20243;-65
2023/07/01 12:54:00;;;;;;;2.03;1.30;;;;;;;;;;5039660;28;20263;-65
2023/07/01 12:56:43;;;;;;;1.27;1.10;;;;;;;;;;5039741;28;20296;-68
2023/07/01 12:59:11;;;;;;;2.03;1.00;;;;;;;;;;5045834;28;20204;-68
2023/07/01 13:01:39;;;;;;;1.43;1.33;;;;;;;;;;5044732;28;20232;-67
2023/07/01 13:04:09;;;;;;;1.03;0.90;;;;;;;;;;5057999;28;20211;-68
2023/07/01 13:06:38;;;;;;;2.00;1.07;;;;;;;;;;5059643;28;20678;-67
2023/07/01 13:09:09;;;;;;;0.90;0.90;;;;;;;;;;5060060;28;20657;-67
2023/07/01 13:11:39;;;;;;;2.00;1.10;;;;;;;;;;5059711;28;20228;-67
2023/07/01 13:14:08;;;;;;;1.50;1.00;;;;;;;;;;5059214;28;20232;-67
2023/07/01 13:16:36;;;;;;;1.20;0.70;;;;;;;;;;5059199;28;20636;-67
2023/07/01 13:19:05;;;;;;;1.50;1.00;;;;;;;;;;5055578;28;20196;-68
2023/07/01 13:21:38;;;;;;;1.00;1.00;;;;;;;;;;5055878;28;20284;-68
2023/07/01 13:24:08;;;;;;;0.90;0.90;;;;;;;;;;5058150;28;20636;-67
2023/07/01 13:26:36;;;;;;;1.13;0.83;;;;;;;;;;5058401;28;20536;-68
2023/07/01 13:29:04;;;;;;;0.90;0.90;;;;;;;;;;5056445;28;20208;-68
2023/07/01 13:31:32;;;;;;;1.17;1.07;;;;;;;;;;5058376;28;20690;-67
2023/07/01 13:34:01;;;;;;;0.97;0.97;;;;;;;;;;5056196;28;20223;-67
2023/07/01 13:36:31;;;;;;;1.23;1.03;;;;;;;;;;5056308;28;20291;-67
2023/07/01 13:39:01;;;;;;;1.17;0.90;;;;;;;;;;5057571;28;20199;-67
2023/07/01 13:41:28;;;;;;;2.60;0.90;;;;;;;;;;5057313;28;20317;-67
2023/07/01 13:44:00;;;;;;;1.40;1.30;;;;;;;;;;5054430;28;20202;-67
2023/07/01 13:46:31;;;;;;;1.13;1.00;;;;;;;;;;5056336;28;20200;-67
2023/07/01 13:48:59;;;;;;;2.97;1.03;;;;;;;;;;5057624;28;20279;-67
2023/07/01 13:51:30;;;;;;;1.30;1.20;;;;;;;;;;5049380;28;20246;-68
2023/07/01 13:53:58;;;;;;;2.20;1.10;;;;;;;;;;5050340;28;20230;-68
2023/07/01 13:56:27;;;;;;;1.00;1.00;;;;;;;;;;5047801;28;20576;-68
2023/07/01 13:58:55;;;;;;;1.10;1.00;;;;;;;;;;5041555;28;20215;-68
2023/07/01 14:01:23;;;;;;;1.00;0.90;;;;;;;;;;5043730;28;20313;-64
2023/07/01 14:03:53;;;;;;;1.40;1.00;;;;;;;;;;5043713;28;20285;-65
2023/07/01 14:06:21;;;;;;;1.27;1.00;;;;;;;;;;5039077;28;20211;-65
2023/07/01 14:08:49;;;;;;;3.17;1.17;;;;;;;;;;5038923;28;20681;-65
2023/07/01 14:11:18;;;;;;;1.10;0.90;;;;;;;;;;5038772;28;20238;-65
2023/07/01 14:13:51;;;;;;;1.40;0.90;;;;;;;;;;5038508;28;20273;-64
2023/07/01 14:16:19;;;;;;;2.17;1.00;;;;;;;;;;5038894;28;20723;-65
2023/07/01 14:18:47;;;;;;;0.97;0.90;;;;;;;;;;5038607;28;20205;-65
2023/07/01 14:21:17;;;;;;;1.27;1.03;;;;;;;;;;5038631;28;20241;-65
2023/07/01 14:23:45;;;;;;;2.40;1.33;;;;;;;;;;5038597;28;20216;-65
2023/07/01 14:26:16;;;;;;;1.23;1.07;;;;;;;;;;5038654;28;20215;-65
2023/07/01 14:28:44;;;;;;;1.23;1.13;;;;;;;;;;5038386;28;20567;-65
2023/07/01 14:31:14;;;;;;;1.33;0.83;;;;;;;;;;5038387;28;20231;-65
2023/07/01 14:33:53;;;;;;;1.10;1.00;;;;;;;;;;5044839;28;20270;-65
2023/07/01 14:36:24;;;;;;;2.83;1.10;;;;;;;;;;5050741;28;20267;-65
2023/07/01 14:38:52;;;;;;;2.40;1.10;;;;;;;;;;5049334;28;20203;-62
2023/07/01 14:41:25;;;;;;;1.10;1.00;;;;;;;;;;5049485;28;20649;-62
2023/07/01 14:43:54;;;;;;;1.63;0.90;;;;;;;;;;5056396;28;20232;-62
2023/07/01 14:46:23;;;;;;;1.30;0.97;;;;;;;;;;5043368;28;20213;-62
2023/07/01 14:48:51;;;;;;;1.27;1.10;;;;;;;;;;5038269;28;20299;-62
2023/07/01 14:51:19;;;;;;;0.87;0.87;;;;;;;;;;5038091;28;20697;-62